createdAt,value
2023-10-06T00:01:07.636Z,97141.75
2023-10-06T00:03:40.596Z,97139.19
2023-10-06T00:06:08.209Z,97142.88
2023-10-06T00:08:35.419Z,97148.09
2023-10-06T00:11:04.151Z,97152.69
2023-10-06T00:13:33.794Z,97151.50
2023-10-06T00:16:06.587Z,97154.56
2023-10-06T00:18:36.823Z,97151.44
2023-10-06T00:21:09.686Z,97149.56
2023-10-06T00:23:37.886Z,97154.69
2023-10-06T00:26:04.841Z,97154.38
2023-10-06T00:28:31.838Z,97156.53
2023-10-06T00:30:58.606Z,97156.78
2023-10-06T00:33:25.776Z,97162.72
2023-10-06T00:35:52.695Z,97161.66
2023-10-06T00:38:19.796Z,97162.63
2023-10-06T00:43:56.906Z,97157.75
2023-10-06T00:46:23.658Z,97154.88
2023-10-06T00:48:50.625Z,97153.00
2023-10-06T00:51:19.262Z,97147.59
2023-10-06T00:53:52.014Z,97154.78
2023-10-06T00:56:19.709Z,97156.84
2023-10-06T00:58:47.037Z,97150.97
2023-10-06T01:01:17.181Z,97156.06
2023-10-06T01:03:45.784Z,97157.94
2023-10-06T01:06:13.952Z,97156.06
2023-10-06T01:08:46.806Z,97153.91
2023-10-06T01:11:19.533Z,97160.69
2023-10-06T01:13:48.759Z,97151.13
2023-10-06T01:16:21.743Z,97148.13
2023-10-06T01:18:48.938Z,97156.19
2023-10-06T01:27:00.395Z,97151.66
2023-10-06T01:29:34.541Z,97144.56
2023-10-06T01:32:07.471Z,97145.38
2023-10-06T01:34:35.988Z,97154.09
2023-10-06T01:39:59.120Z,97139.00
2023-10-06T01:42:31.700Z,97133.09
2023-10-06T01:45:03.431Z,97135.31
2023-10-06T01:47:36.171Z,97141.34
2023-10-06T01:50:06.661Z,97138.38
2023-10-06T01:52:44.409Z,97135.22
2023-10-06T01:55:16.956Z,97133.31
2023-10-06T02:00:34.439Z,97128.47
2023-10-06T02:03:07.006Z,97120.91
2023-10-06T02:05:35.473Z,97124.22
2023-10-06T02:08:11.474Z,97119.53
2023-10-06T02:10:39.147Z,97115.28
2023-10-06T02:16:01.114Z,97108.28
2023-10-06T02:18:31.676Z,97112.69
2023-10-06T02:21:04.449Z,97113.09
2023-10-06T02:23:37.323Z,97112.31
2023-10-06T02:26:04.599Z,97110.06
2023-10-06T02:28:32.840Z,97112.19
2023-10-06T02:33:57.799Z,97115.06
2023-10-06T02:36:24.995Z,97110.44
2023-10-06T02:41:50.095Z,97110.38
2023-10-06T02:44:18.090Z,97110.25
2023-10-06T02:46:46.103Z,97110.44
2023-10-06T02:49:14.849Z,97102.28
2023-10-06T02:51:42.029Z,97106.00
2023-10-06T02:57:00.243Z,97105.81
2023-10-06T02:59:30.092Z,97104.53
2023-10-06T03:01:59.242Z,97104.28
2023-10-06T03:04:26.523Z,97107.94
2023-10-06T03:06:53.533Z,97114.75
2023-10-06T03:09:20.484Z,97115.47
2023-10-06T03:11:53.174Z,97108.81
2023-10-06T03:14:26.008Z,97113.03
2023-10-06T03:16:53.763Z,97110.03
2023-10-06T03:19:21.467Z,97112.31
2023-10-06T03:24:46.094Z,97109.88
2023-10-06T03:27:13.285Z,97118.25
2023-10-06T03:29:46.236Z,97116.88
2023-10-06T03:32:19.271Z,97113.78
2023-10-06T03:34:52.274Z,97120.38
2023-10-06T03:40:13.470Z,97118.56
2023-10-06T03:42:40.223Z,97120.06
2023-10-06T03:45:09.142Z,97128.75
2023-10-06T03:50:30.799Z,97128.16
2023-10-06T03:53:01.365Z,97135.13
2023-10-06T03:55:34.198Z,97119.22
2023-10-06T03:58:07.306Z,97130.47
2023-10-06T04:00:40.282Z,97124.09
2023-10-06T04:03:12.848Z,97123.56
2023-10-06T04:08:30.212Z,97118.28
2023-10-06T04:10:57.421Z,97122.03
2023-10-06T04:13:24.648Z,97122.56
2023-10-06T04:15:51.971Z,97122.50
2023-10-06T04:18:19.285Z,97122.50
2023-10-06T04:20:52.019Z,97121.09
2023-10-06T04:23:24.832Z,97125.72
2023-10-06T04:25:58.112Z,97121.47
2023-10-06T04:28:25.647Z,97118.19
2023-10-06T04:36:34.978Z,97113.84
2023-10-06T04:39:05.868Z,97114.97
2023-10-06T04:41:38.721Z,97120.56
2023-10-06T04:47:20.923Z,97125.44
2023-10-06T04:49:57.040Z,97118.13
2023-10-06T04:52:42.586Z,97126.41
2023-10-06T05:01:40.756Z,97130.53
2023-10-06T05:07:06.573Z,97138.63
2023-10-06T05:12:26.589Z,97134.94
2023-10-06T05:14:53.811Z,97133.28
2023-10-06T06:05:24.165Z,97151.78
2023-10-06T06:07:51.397Z,97147.47
2023-10-06T06:10:19.293Z,97154.97
2023-10-06T06:12:48.484Z,97150.88
2023-10-06T06:15:17.660Z,97159.31
2023-10-06T06:17:44.733Z,97162.31
2023-10-06T06:20:18.332Z,97155.59
2023-10-06T06:22:45.707Z,97165.59
2023-10-06T06:25:12.572Z,97165.47
2023-10-06T06:27:39.868Z,97172.69
2023-10-06T06:30:10.081Z,97169.81
2023-10-06T06:32:37.276Z,97166.97
2023-10-06T06:35:04.322Z,97173.16
2023-10-06T06:37:31.385Z,97170.47
2023-10-06T06:39:58.638Z,97177.47
2023-10-06T06:45:43.209Z,97186.03
2023-10-06T06:48:12.824Z,97179.31
2023-10-06T06:50:39.773Z,97174.53
2023-10-06T06:53:06.577Z,97183.69
2023-10-06T06:55:34.381Z,97183.88
2023-10-06T06:58:01.325Z,97181.75
2023-10-06T07:00:28.382Z,97181.50
2023-10-06T07:02:58.466Z,97188.06
2023-10-06T07:05:32.112Z,97190.19
2023-10-06T07:08:07.448Z,97183.44
2023-10-06T07:10:43.494Z,97181.34
2023-10-06T07:13:12.458Z,97192.03
2023-10-06T07:15:42.228Z,97197.56
2023-10-06T07:18:11.051Z,97193.66
2023-10-06T07:20:37.957Z,97201.91
2023-10-06T07:23:07.148Z,97195.22
2023-10-06T07:25:34.342Z,97202.13
2023-10-06T07:28:02.177Z,97196.63
2023-10-06T07:30:31.390Z,97201.47
2023-10-06T07:32:58.482Z,97204.53
2023-10-06T07:35:29.007Z,97203.19
2023-10-06T07:37:55.831Z,97207.22
2023-10-06T07:40:22.983Z,97203.81
2023-10-06T07:42:50.263Z,97205.47
2023-10-06T07:45:18.050Z,97200.84
2023-10-06T07:47:45.320Z,97208.56
2023-10-06T07:50:12.988Z,97217.78
2023-10-06T07:52:40.128Z,97219.13
2023-10-06T07:55:09.290Z,97210.94
2023-10-06T07:57:36.333Z,97208.00
2023-10-06T08:00:03.289Z,97212.44
2023-10-06T08:05:47.164Z,97214.75
2023-10-06T08:08:14.280Z,97206.50
2023-10-06T08:10:41.128Z,97214.88
2023-10-06T08:13:11.202Z,97213.19
2023-10-06T08:18:43.217Z,97209.00
2023-10-06T08:21:11.441Z,97208.16
2023-10-06T08:23:39.711Z,97209.47
2023-10-06T08:26:08.499Z,97211.41
2023-10-06T08:28:35.707Z,97221.31
2023-10-06T08:31:03.365Z,97219.28
2023-10-06T08:33:33.008Z,97210.50
2023-10-06T08:36:01.198Z,97213.50
2023-10-06T08:38:28.986Z,97207.84
2023-10-06T08:40:55.972Z,97208.72
2023-10-06T08:43:23.676Z,97207.72
2023-10-06T08:45:52.948Z,97204.41
2023-10-06T08:48:21.253Z,97203.69
2023-10-06T08:50:48.075Z,97206.78
2023-10-06T08:53:16.154Z,97209.63
2023-10-06T09:01:50.640Z,97208.44
2023-10-06T09:04:20.846Z,97203.28
2023-10-06T09:32:00.763Z,97200.56
2023-10-06T09:32:21.107Z,97195.75
2023-10-06T09:38:09.284Z,97194.25
2023-10-06T09:40:34.470Z,97184.91
2023-10-06T09:43:01.615Z,97187.63
2023-10-06T09:45:29.253Z,97182.84
2023-10-06T09:50:40.760Z,97180.34
2023-10-06T09:53:10.200Z,97172.03
2023-10-06T09:55:38.233Z,97180.16
2023-10-06T09:58:05.338Z,97181.09
2023-10-06T10:00:32.510Z,97171.91
2023-10-06T10:06:15.137Z,97177.78
2023-10-06T10:08:44.450Z,97174.72
2023-10-06T10:11:11.588Z,97168.50
2023-10-06T10:13:42.284Z,97176.16
2023-10-06T10:16:22.877Z,97168.91
2023-10-06T10:19:11.740Z,97161.25
2023-10-06T10:21:39.182Z,97169.47
2023-10-06T10:24:40.623Z,97163.66
2023-10-06T10:26:56.941Z,97165.44
2023-10-06T10:29:23.915Z,97161.44
2023-10-06T10:32:00.802Z,97157.72
2023-10-06T10:34:28.959Z,97153.59
2023-10-06T10:36:56.863Z,97160.00
2023-10-06T10:39:24.126Z,97158.41
2023-10-06T10:41:51.637Z,97158.19
2023-10-06T10:44:25.961Z,97160.75
2023-10-06T10:47:12.853Z,97160.56
2023-10-06T10:49:39.857Z,97161.13
2023-10-06T10:52:07.526Z,97154.09
2023-10-06T10:54:34.531Z,97155.75
2023-10-06T10:57:01.368Z,97153.72
2023-10-06T10:59:28.231Z,97145.88
2023-10-06T11:01:56.091Z,97156.69
2023-10-06T11:04:23.060Z,97154.38
2023-10-06T11:06:49.950Z,97157.97
2023-10-06T11:09:17.185Z,97151.88
2023-10-06T11:11:44.835Z,97145.84
2023-10-06T11:14:11.871Z,97151.88
2023-10-06T11:16:39.358Z,97146.56
2023-10-06T11:19:06.424Z,97142.13
2023-10-06T11:21:34.285Z,97152.88
2023-10-06T11:24:01.224Z,97140.59
2023-10-06T11:26:28.222Z,97147.16
2023-10-06T11:28:56.255Z,97143.53
2023-10-06T11:31:23.997Z,97134.84
2023-10-06T11:39:42.007Z,97124.31
2023-10-06T11:45:18.258Z,97122.72
2023-10-06T11:47:45.331Z,97129.00
2023-10-06T11:50:13.221Z,97120.69
2023-10-06T11:52:55.974Z,97119.41
2023-10-06T11:58:34.312Z,97105.44
2023-10-06T12:01:37.310Z,97105.22
2023-10-06T12:06:53.961Z,97099.22
2023-10-06T12:16:48.613Z,97088.88
2023-10-06T12:18:47.650Z,97087.78
2023-10-06T12:21:23.793Z,97083.69
2023-10-06T12:30:17.709Z,97087.97
2023-10-06T12:35:44.751Z,97080.00
2023-10-06T12:50:34.218Z,97074.09
2023-10-06T12:56:13.604Z,97062.28
2023-10-06T12:59:03.178Z,97065.22
2023-10-06T13:17:34.179Z,97047.97
2023-10-06T13:33:34.717Z,97042.34
2023-10-06T14:01:24.139Z,97028.63
2023-10-06T14:03:51.275Z,97025.06
2023-10-06T14:06:18.289Z,97026.94
2023-10-06T14:08:46.722Z,97022.09
2023-10-06T14:11:18.017Z,97025.34
2023-10-06T14:13:45.098Z,97027.25
2023-10-06T14:16:12.989Z,97021.44
2023-10-06T14:31:49.491Z,97018.84
2023-10-06T14:34:13.100Z,97019.72
2023-10-06T14:36:39.894Z,97019.56
2023-10-06T14:39:07.048Z,97024.47
2023-10-06T14:41:33.798Z,97017.22
2023-10-06T14:44:00.654Z,97026.09
2023-10-06T14:46:27.650Z,97023.97
2023-10-06T14:52:00.185Z,97019.25
2023-10-06T14:54:27.262Z,97015.53
2023-10-06T14:56:55.706Z,97018.66
2023-10-06T14:59:22.940Z,97018.34
2023-10-06T15:01:50.302Z,97012.41
2023-10-06T15:04:17.319Z,97011.59
2023-10-06T15:06:47.867Z,97016.25
2023-10-06T15:09:14.561Z,97014.34
2023-10-06T15:11:41.753Z,97012.06
2023-10-06T15:14:14.028Z,97011.03
2023-10-06T15:16:41.768Z,97016.69
2023-10-06T15:19:08.703Z,97015.09
2023-10-06T15:21:35.903Z,97019.97
2023-10-06T15:24:05.991Z,97014.34
2023-10-06T15:26:33.095Z,97013.66
2023-10-06T15:29:02.198Z,97017.94
2023-10-06T15:31:33.218Z,97011.97
2023-10-06T15:34:00.281Z,97015.41
2023-10-06T15:36:27.186Z,97018.91
2023-10-06T15:38:53.936Z,97014.44
2023-10-06T15:41:20.843Z,97023.81
2023-10-06T15:43:48.464Z,97021.22
2023-10-06T15:46:15.632Z,97019.94
2023-10-06T15:48:44.903Z,97019.06
2023-10-06T15:51:17.376Z,97020.84
2023-10-06T15:53:44.548Z,97036.38
2023-10-06T15:56:11.563Z,97026.34
2023-10-06T15:58:38.441Z,97031.22
2023-10-06T16:01:05.431Z,97029.63
2023-10-06T16:03:32.463Z,97032.66
2023-10-06T16:05:59.703Z,97031.97
2023-10-06T16:08:26.733Z,97027.28
2023-10-06T16:10:53.477Z,97031.72
2023-10-06T16:13:20.337Z,97024.88
2023-10-06T16:16:04.171Z,97028.78
2023-10-06T16:18:36.323Z,97028.50
2023-10-06T16:21:03.312Z,97027.69
2023-10-06T16:23:32.529Z,97033.91
2023-10-06T16:25:59.900Z,97032.75
2023-10-06T16:28:27.424Z,97032.66
2023-10-06T16:30:54.006Z,97033.06
2023-10-06T16:33:21.123Z,97033.72
2023-10-06T16:35:48.344Z,97036.91
2023-10-06T16:38:18.502Z,97031.13
2023-10-06T16:40:45.723Z,97033.16
2023-10-06T16:43:12.393Z,97035.38
2023-10-06T16:45:40.893Z,97046.59
2023-10-06T16:51:18.698Z,97043.41
2023-10-06T16:53:45.444Z,97041.59
2023-10-06T16:56:13.147Z,97037.97
2023-10-06T16:58:42.166Z,97043.53
2023-10-06T17:01:08.932Z,97031.81
2023-10-06T17:03:36.142Z,97048.34
2023-10-06T17:06:02.926Z,97043.63
2023-10-06T17:08:29.593Z,97039.31
2023-10-06T17:10:56.399Z,97051.28
2023-10-06T17:13:23.389Z,97046.31
2023-10-06T17:15:50.279Z,97046.03
2023-10-06T17:18:18.553Z,97059.84
2023-10-06T17:20:45.401Z,97057.19
2023-10-06T17:23:13.286Z,97059.53
2023-10-06T17:25:40.035Z,97067.97
2023-10-06T17:28:10.410Z,97069.56
2023-10-06T17:33:30.814Z,97066.22
2023-10-06T17:35:57.950Z,97073.22
2023-10-06T17:38:25.004Z,97074.88
2023-10-06T17:40:56.100Z,97085.97
2023-10-06T17:43:25.864Z,97084.72
2023-10-06T17:45:55.659Z,97088.38
2023-10-06T17:48:25.718Z,97087.44
2023-10-06T17:50:52.624Z,97092.56
2023-10-06T18:05:51.667Z,97098.09
2023-10-06T18:08:21.876Z,97106.72
2023-10-06T18:10:48.674Z,97109.50
2023-10-06T18:13:15.617Z,97102.91
2023-10-06T18:15:42.449Z,97112.97
2023-10-06T18:18:09.428Z,97110.47
2023-10-06T18:20:36.981Z,97117.50
2023-10-06T18:23:05.515Z,97115.16
2023-10-06T18:25:32.464Z,97114.78
2023-10-06T18:28:00.029Z,97126.19
2023-10-06T18:30:26.702Z,97120.63
2023-10-06T18:32:53.602Z,97119.50
2023-10-06T18:35:20.370Z,97123.72
2023-10-06T18:37:47.403Z,97122.13
2023-10-06T18:40:14.154Z,97120.94
2023-10-06T18:42:44.193Z,97120.34
2023-10-06T18:45:11.122Z,97126.91
2023-10-06T18:47:37.833Z,97120.56
2023-10-06T18:50:04.785Z,97131.50
2023-10-06T18:52:31.347Z,97137.59
2023-10-06T18:54:57.858Z,97134.59
2023-10-06T18:57:24.524Z,97145.34
2023-10-06T18:59:51.402Z,97139.72
2023-10-06T19:02:18.058Z,97144.72
2023-10-06T19:04:45.939Z,97143.84
2023-10-06T19:07:14.681Z,97146.78
2023-10-06T19:09:41.241Z,97149.03
2023-10-06T20:40:47.839Z,97179.97
2023-10-06T20:43:21.726Z,97180.41
2023-10-06T20:45:48.858Z,97178.25
2023-10-06T20:48:16.319Z,97183.56
2023-10-06T20:50:43.802Z,97184.91
2023-10-06T20:53:12.002Z,97185.84
2023-10-06T20:55:39.015Z,97185.19
2023-10-06T20:58:08.832Z,97182.03
2023-10-06T21:00:39.226Z,97190.41
2023-10-06T21:03:09.066Z,97193.69
2023-10-06T21:05:36.824Z,97191.75
2023-10-06T21:08:21.785Z,97190.66
2023-10-06T21:10:51.909Z,97196.00
2023-10-06T21:13:18.967Z,97192.78
2023-10-06T21:15:49.035Z,97201.75
2023-10-06T21:18:16.757Z,97200.56
2023-10-06T21:23:40.147Z,97204.69
2023-10-06T21:26:10.168Z,97202.81
2023-10-06T21:28:37.970Z,97207.38
2023-10-06T21:31:05.732Z,97210.06
2023-10-06T21:33:33.565Z,97204.53
2023-10-06T21:36:04.200Z,97214.06
2023-10-06T21:38:32.016Z,97212.44
2023-10-06T21:40:59.893Z,97214.34
2023-10-06T21:43:30.282Z,97217.88
2023-10-06T21:46:05.514Z,97213.16
2023-10-06T21:48:34.409Z,97218.81
2023-10-06T21:51:01.189Z,97209.78
2023-10-06T21:53:31.781Z,97211.78
2023-10-06T21:56:02.842Z,97208.97
2023-10-06T22:01:27.645Z,97217.41
2023-10-06T22:03:57.308Z,97213.94
2023-10-06T22:06:29.805Z,97205.72
2023-10-06T22:08:57.708Z,97203.31
2023-10-06T22:11:25.227Z,97209.88
2023-10-06T22:13:52.381Z,97208.88
2023-10-06T22:16:23.283Z,97211.00
2023-10-06T22:18:50.275Z,97211.81
2023-10-06T22:21:18.033Z,97215.19
2023-10-06T22:23:47.229Z,97217.38
2023-10-06T22:26:15.104Z,97213.03
2023-10-06T22:28:43.241Z,97215.69
2023-10-06T22:31:11.164Z,97210.25
2023-10-06T22:33:37.917Z,97209.41
2023-10-06T22:36:06.094Z,97209.09
2023-10-06T22:38:32.714Z,97218.03
2023-10-06T22:40:59.712Z,97216.97
2023-10-06T22:49:41.035Z,97214.97
2023-10-06T22:52:07.851Z,97212.75
2023-10-06T22:54:36.436Z,97212.44
2023-10-06T22:57:03.271Z,97200.81
2023-10-06T22:59:31.057Z,97204.41
2023-10-06T23:01:58.614Z,97202.09
2023-10-06T23:04:26.185Z,97207.19
2023-10-06T23:06:57.827Z,97201.75
2023-10-06T23:09:24.597Z,97202.69
2023-10-06T23:11:52.361Z,97201.44
2023-10-06T23:14:23.860Z,97196.50
2023-10-06T23:16:51.855Z,97198.09
2023-10-06T23:19:19.563Z,97203.66
2023-10-06T23:21:46.897Z,97197.63
2023-10-06T23:24:14.633Z,97199.63
2023-10-06T23:26:41.395Z,97203.59
2023-10-06T23:29:08.311Z,97196.03
2023-10-06T23:31:35.693Z,97195.72
2023-10-06T23:34:03.759Z,97195.47
2023-10-06T23:36:30.937Z,97196.09
2023-10-06T23:39:00.892Z,97194.81
2023-10-06T23:44:44.338Z,97189.63
2023-10-06T23:47:11.158Z,97182.19
2023-10-06T23:49:39.170Z,97180.50
2023-10-06T23:52:08.168Z,97183.56
2023-10-06T23:54:35.064Z,97173.66
2023-10-06T23:57:03.465Z,97177.94
2023-10-06T23:59:31.148Z,97186.63
